Time;durP1;ratioP1;P1;durP2;ratioP2;P2;SDS_P1;SDS_P2;PMS_P1;PMS_P2;Temp;Humidity;BMP_temperature;BMP_pressure;BME280_temperature;BME280_humidity;BME280_pressure;Samples;Min_cycle;Max_cycle;Signal;HPM_P1;HPM_P2
2023/04/15 04:01:11;;;;;;;0.60;0.10;;;9.70;99.90;;;;;;5649809;23;20515;-79
2023/04/15 04:03:39;;;;;;;0.60;0.10;;;9.50;99.90;;;;;;4910708;29;20449;-76
2023/04/15 04:06:08;;;;;;;0.60;0.10;;;9.40;99.90;;;;;;4918110;29;20789;-78
2023/04/15 04:08:35;;;;;;;0.60;0.10;;;9.40;99.90;;;;;;4918052;29;20794;-78
2023/04/15 04:11:04;;;;;;;0.60;0.10;;;9.20;99.90;;;;;;4917506;29;20484;-78
2023/04/15 04:13:32;;;;;;;0.50;0.10;;;9.10;99.90;;;;;;4917185;29;20448;-78
2023/04/15 04:15:59;;;;;;;0.60;0.10;;;9.10;99.90;;;;;;4920358;29;20847;-78
2023/04/15 04:18:29;;;;;;;0.60;0.10;;;9.10;99.90;;;;;;4923027;29;20472;-78
2023/04/15 04:20:57;;;;;;;0.50;0.10;;;9.10;99.90;;;;;;4926361;29;20472;-78
2023/04/15 04:23:25;;;;;;;0.60;0.10;;;9.00;99.90;;;;;;4922442;29;20528;-78
2023/04/15 04:25:53;;;;;;;0.60;0.20;;;9.00;99.90;;;;;;4919575;29;20479;-77
2023/04/15 04:28:21;;;;;;;0.60;0.10;;;9.00;99.90;;;;;;4919335;29;20463;-78
2023/04/15 04:30:50;;;;;;;0.70;0.30;;;8.90;99.90;;;;;;4922254;29;20484;-77
2023/04/15 04:33:18;;;;;;;0.60;0.10;;;8.90;99.90;;;;;;4919997;29;20444;-77
2023/04/15 04:35:47;;;;;;;3.50;2.20;;;8.80;99.90;;;;;;4920975;29;20513;-78
2023/04/15 04:38:15;;;;;;;0.53;0.10;;;8.90;99.90;;;;;;4903674;29;20486;-77
2023/04/15 04:40:43;;;;;;;0.60;0.10;;;8.80;99.90;;;;;;4904159;29;20458;-78
2023/04/15 04:43:11;;;;;;;0.60;0.10;;;8.80;99.90;;;;;;4913283;29;20474;-77
2023/04/15 04:45:38;;;;;;;0.50;0.10;;;8.80;99.90;;;;;;4909778;29;20454;-77
2023/04/15 04:48:07;;;;;;;0.50;0.10;;;8.80;99.90;;;;;;4924303;29;20481;-77
2023/04/15 04:50:35;;;;;;;0.60;0.10;;;8.80;99.90;;;;;;4928792;29;20445;-78
2023/04/15 04:53:04;;;;;;;0.50;0.10;;;8.70;99.90;;;;;;4935928;29;20492;-78
2023/04/15 04:55:33;;;;;;;0.50;0.10;;;8.70;99.90;;;;;;4936087;29;20441;-77
2023/04/15 04:58:01;;;;;;;0.60;0.10;;;8.70;99.90;;;;;;4937352;29;20509;-77
2023/04/15 05:00:29;;;;;;;0.50;0.10;;;8.70;99.90;;;;;;4919945;29;20461;-78
2023/04/15 05:02:57;;;;;;;0.60;0.10;;;8.70;99.90;;;;;;4916701;29;20442;-79
2023/04/15 05:05:25;;;;;;;0.50;0.10;;;8.80;99.90;;;;;;4921661;29;20452;-78
2023/04/15 05:07:53;;;;;;;0.60;0.10;;;8.80;99.90;;;;;;4923957;29;20964;-78
2023/04/15 05:10:23;;;;;;;0.60;0.10;;;8.80;99.90;;;;;;4924220;29;20457;-78
2023/04/15 05:12:51;;;;;;;0.60;0.10;;;8.80;99.90;;;;;;4922890;29;20496;-77
2023/04/15 05:15:19;;;;;;;0.57;0.10;;;8.70;99.90;;;;;;4924374;29;20456;-79
2023/04/15 05:17:47;;;;;;;0.60;0.10;;;8.80;99.90;;;;;;4920096;29;20452;-79
2023/04/15 05:20:15;;;;;;;0.50;0.10;;;8.80;99.90;;;;;;4902586;29;20481;-77
2023/04/15 05:22:43;;;;;;;0.50;0.10;;;8.80;99.90;;;;;;4915763;29;20483;-78
2023/04/15 05:25:11;;;;;;;0.50;0.10;;;8.80;99.90;;;;;;4904381;29;20982;-77
2023/04/15 05:27:40;;;;;;;0.60;0.10;;;8.90;99.90;;;;;;4918100;29;20501;-77
2023/04/15 05:30:09;;;;;;;0.50;0.10;;;8.90;99.90;;;;;;4924426;29;20548;-78
2023/04/15 05:32:40;;;;;;;0.50;0.10;;;8.90;99.90;;;;;;4937483;29;20480;-78
2023/04/15 05:35:08;;;;;;;0.57;0.10;;;9.00;99.90;;;;;;4934406;29;20465;-78
2023/04/15 05:37:36;;;;;;;0.60;0.10;;;9.00;99.90;;;;;;4933390;29;20467;-78
2023/04/15 05:40:04;;;;;;;0.57;0.10;;;9.00;99.90;;;;;;4934803;29;20515;-79
2023/04/15 05:42:32;;;;;;;0.50;0.10;;;9.10;99.90;;;;;;4936562;29;20457;-78
2023/04/15 05:45:04;;;;;;;0.60;0.10;;;9.10;99.90;;;;;;4931181;29;20488;-79
2023/04/15 05:47:32;;;;;;;0.50;0.10;;;9.10;99.90;;;;;;4923711;29;20448;-78
2023/04/15 05:50:00;;;;;;;0.60;0.10;;;;;;;;;;4908271;29;20478;-78
2023/04/15 05:52:28;;;;;;;0.50;0.10;;;9.10;99.90;;;;;;4905431;29;20500;-78
2023/04/15 05:54:55;;;;;;;0.50;0.10;;;9.10;99.90;;;;;;4905777;29;20449;-79
2023/04/15 05:57:23;;;;;;;0.60;0.10;;;9.10;99.90;;;;;;4923154;29;20452;-78
2023/04/15 05:59:51;;;;;;;0.60;0.10;;;9.20;99.90;;;;;;4913270;29;20457;-78
2023/04/15 06:02:20;;;;;;;0.80;0.77;;;9.20;99.90;;;;;;4921477;29;20481;-77
2023/04/15 06:04:49;;;;;;;0.60;0.10;;;9.20;99.90;;;;;;4926246;29;20460;-79
2023/04/15 06:07:17;;;;;;;0.60;0.10;;;9.20;99.90;;;;;;4926849;29;20495;-79
2023/04/15 06:09:45;;;;;;;0.60;0.10;;;9.20;99.90;;;;;;4926621;29;20455;-78
2023/04/15 06:12:13;;;;;;;0.60;0.10;;;9.20;99.90;;;;;;4918003;29;20492;-79
2023/04/15 06:14:41;;;;;;;0.60;0.10;;;9.30;99.90;;;;;;4925818;29;20951;-79
2023/04/15 06:17:09;;;;;;;0.60;0.10;;;7.20;99.90;;;;;;4926008;29;20480;-79
2023/04/15 06:19:39;;;;;;;0.50;0.10;;;9.60;99.90;;;;;;4926063;29;20568;-79
2023/04/15 06:22:07;;;;;;;0.60;0.10;;;9.60;99.90;;;;;;4925606;29;20476;-79
2023/04/15 06:24:35;;;;;;;0.60;0.10;;;9.60;99.90;;;;;;4925453;29;20461;-80
2023/04/15 06:27:03;;;;;;;0.60;0.10;;;9.60;99.90;;;;;;4926827;29;20552;-80
2023/04/15 06:29:31;;;;;;;0.57;0.10;;;9.60;99.90;;;;;;4929280;29;20445;-79
2023/04/15 06:31:59;;;;;;;0.60;0.30;;;9.70;99.90;;;;;;4927532;29;20492;-78
2023/04/15 06:34:27;;;;;;;0.60;0.10;;;9.80;99.90;;;;;;4924372;29;20535;-78
2023/04/15 06:36:56;;;;;;;0.60;0.10;;;9.80;99.90;;;;;;4923685;29;20475;-79
2023/04/15 06:39:24;;;;;;;0.60;0.20;;;9.80;99.90;;;;;;4930645;29;20444;-78
2023/04/15 06:41:52;;;;;;;0.60;0.10;;;9.80;99.90;;;;;;4932998;29;20759;-79
2023/04/15 06:44:20;;;;;;;0.60;0.10;;;9.90;99.90;;;;;;4927911;29;20455;-79
2023/04/15 06:46:48;;;;;;;0.60;0.10;;;10.00;99.90;;;;;;4905694;29;20458;-79
2023/04/15 06:49:16;;;;;;;0.60;0.10;;;10.00;99.90;;;;;;4911575;29;20446;-80
2023/04/15 06:51:43;;;;;;;0.60;0.10;;;10.00;99.90;;;;;;4919426;29;20465;-79
2023/04/15 06:54:13;;;;;;;0.60;0.10;;;;;;;;;;4938912;29;20470;-78
2023/04/15 06:56:41;;;;;;;1.53;1.23;;;10.00;99.90;;;;;;4925672;29;20468;-78
2023/04/15 06:59:09;;;;;;;1.70;1.60;;;10.00;99.90;;;;;;4908355;29;20466;-78
2023/04/15 07:01:37;;;;;;;0.60;0.20;;;10.10;99.90;;;;;;4913976;29;20483;-79
2023/04/15 07:04:05;;;;;;;0.60;0.10;;;10.10;99.90;;;;;;4916833;29;20454;-78
2023/04/15 07:06:34;;;;;;;0.60;0.20;;;;;;;;;;4915418;29;20521;-77
2023/04/15 07:09:03;;;;;;;0.60;0.40;;;10.10;99.90;;;;;;4927347;29;20458;-79
2023/04/15 07:11:35;;;;;;;0.60;0.10;;;10.20;99.90;;;;;;4926536;29;20480;-79
2023/04/15 07:14:03;;;;;;;0.60;0.10;;;10.20;99.90;;;;;;4926649;29;20495;-79
2023/04/15 07:16:31;;;;;;;0.60;0.10;;;10.20;99.90;;;;;;4925964;29;20455;-79
2023/04/15 07:18:58;;;;;;;0.60;0.10;;;10.30;99.90;;;;;;4926011;29;20544;-79
2023/04/15 07:21:27;;;;;;;0.60;0.20;;;10.30;99.90;;;;;;4922084;29;21105;-79
2023/04/15 07:23:55;;;;;;;0.60;0.10;;;10.30;99.90;;;;;;4924711;29;20458;-79
2023/04/15 07:26:23;;;;;;;0.80;0.80;;;10.40;99.90;;;;;;4926309;29;20457;-79
2023/04/15 07:28:52;;;;;;;0.60;0.10;;;10.50;99.90;;;;;;4925529;29;20561;-78
2023/04/15 07:31:20;;;;;;;0.70;0.33;;;10.50;99.90;;;;;;4926098;29;20471;-79
2023/04/15 07:33:49;;;;;;;1.13;0.47;;;;;;;;;;4921332;29;20481;-79
2023/04/15 07:36:17;;;;;;;0.60;0.10;;;10.40;99.90;;;;;;4932577;29;20477;-78
2023/04/15 07:38:45;;;;;;;0.60;0.10;;;10.50;99.90;;;;;;4924573;29;20477;-80
2023/04/15 07:41:15;;;;;;;1.90;0.40;;;10.40;99.90;;;;;;4924498;29;21074;-80
2023/04/15 07:43:43;;;;;;;0.60;0.10;;;10.30;99.90;;;;;;4919909;29;20520;-79
2023/04/15 07:46:13;;;;;;;2.27;0.93;;;;;;;;;;4920115;29;20471;-79
2023/04/15 07:48:41;;;;;;;0.60;0.10;;;10.40;99.90;;;;;;4925703;29;20456;-79
2023/04/15 07:51:09;;;;;;;0.60;0.20;;;10.40;99.90;;;;;;4909774;29;20477;-79
2023/04/15 07:53:38;;;;;;;0.60;0.10;;;;;;;;;;4904810;29;20494;-79
2023/04/15 07:56:06;;;;;;;2.63;2.53;;;;;;;;;;4924613;29;20473;-78
2023/04/15 07:58:34;;;;;;;0.60;0.10;;;10.60;99.90;;;;;;4937258;29;20449;-77
2023/04/15 08:01:02;;;;;;;3.97;1.73;;;10.70;99.90;;;;;;4940905;29;20580;-78
2023/04/15 08:03:31;;;;;;;0.60;0.10;;;10.70;99.90;;;;;;4955219;29;20521;-79
2023/04/15 08:06:00;;;;;;;0.60;0.20;;;;;;;;;;4940347;29;20450;-78
2023/04/15 08:08:28;;;;;;;0.60;0.10;;;10.90;99.90;;;;;;4943376;29;20448;-77
2023/04/15 08:10:56;;;;;;;0.60;0.20;;;11.00;99.90;;;;;;4929406;29;20943;-79
2023/04/15 08:13:24;;;;;;;0.60;0.10;;;11.00;99.90;;;;;;4920102;29;20495;-81
2023/04/15 08:16:12;;;;;;;0.60;0.40;;;11.10;99.90;;;;;;4926353;29;20453;-79
2023/04/15 08:18:41;;;;;;;0.60;0.10;;;11.10;99.90;;;;;;4923467;29;20462;-80
2023/04/15 08:21:09;;;;;;;0.60;0.33;;;11.20;99.90;;;;;;4923250;29;20512;-80
2023/04/15 08:23:38;;;;;;;0.60;0.33;;;11.20;99.90;;;;;;4923114;29;20449;-79
2023/04/15 08:26:06;;;;;;;0.60;0.10;;;;;;;;;;4927556;29;20966;-79
2023/04/15 08:28:34;;;;;;;0.60;0.10;;;11.20;99.90;;;;;;4933009;29;20529;-79
2023/04/15 08:31:02;;;;;;;0.60;0.10;;;11.30;99.90;;;;;;4937578;29;20477;-80
2023/04/15 08:33:30;;;;;;;0.70;0.40;;;11.30;99.90;;;;;;4934509;29;20493;-78
2023/04/15 08:35:59;;;;;;;1.37;0.80;;;11.20;99.90;;;;;;4925845;29;20472;-78
2023/04/15 08:38:27;;;;;;;2.53;2.33;;;11.30;99.90;;;;;;4926708;29;20455;-79
2023/04/15 08:40:58;;;;;;;2.37;0.40;;;11.30;99.90;;;;;;4922341;29;20480;-79
2023/04/15 08:43:29;;;;;;;0.60;0.20;;;11.30;99.90;;;;;;4925653;29;20494;-80
2023/04/15 08:45:59;;;;;;;0.60;0.10;;;11.30;99.90;;;;;;4925363;29;20461;-80
2023/04/15 08:48:29;;;;;;;0.60;0.10;;;11.40;99.90;;;;;;4925106;29;20541;-79
2023/04/15 08:50:58;;;;;;;0.70;0.50;;;11.50;99.90;;;;;;4925354;29;20483;-81
2023/04/15 08:53:27;;;;;;;0.90;0.80;;;;;;;;;;4925444;29;20532;-80
2023/04/15 08:55:58;;;;;;;0.60;0.20;;;11.50;99.90;;;;;;4925987;29;20463;-81
2023/04/15 08:58:26;;;;;;;0.80;0.60;;;11.50;99.90;;;;;;4915603;29;20458;-82
2023/04/15 09:00:56;;;;;;;3.47;0.90;;;11.50;99.90;;;;;;4907079;29;20498;-81
2023/04/15 09:03:24;;;;;;;0.60;0.20;;;11.50;99.90;;;;;;4910152;29;20443;-80
2023/04/15 09:05:52;;;;;;;0.60;0.13;;;11.50;99.90;;;;;;4922969;29;20493;-81
2023/04/15 09:08:22;;;;;;;0.60;0.20;;;;;;;;;;4927948;29;20472;-81
2023/04/15 09:10:50;;;;;;;0.90;0.30;;;11.60;99.90;;;;;;4918335;29;20500;-79
2023/04/15 09:13:18;;;;;;;1.57;0.30;;;11.60;99.90;;;;;;4927460;29;20941;-80
2023/04/15 09:15:47;;;;;;;1.90;1.80;;;11.80;99.90;;;;;;4927344;29;20463;-79
2023/04/15 09:18:28;;;;;;;0.60;0.10;;;11.80;99.90;;;;;;4926976;29;20457;-79
2023/04/15 09:20:56;;;;;;;0.60;0.10;;;11.80;99.90;;;;;;4906373;29;20475;-79
2023/04/15 09:23:26;;;;;;;0.60;0.10;;;11.90;99.90;;;;;;4905863;29;20975;-81
2023/04/15 09:25:54;;;;;;;0.60;0.10;;;11.90;99.90;;;;;;4906017;29;20997;-80
2023/04/15 09:28:26;;;;;;;7.93;0.63;;;;;;;;;;4910990;29;20459;-79
2023/04/15 09:30:56;;;;;;;0.60;0.20;;;12.00;99.90;;;;;;4909994;29;20503;-79
2023/04/15 09:33:25;;;;;;;0.60;0.10;;;11.90;99.90;;;;;;4923881;29;20455;-80
2023/04/15 09:35:58;;;;;;;1.07;0.43;;;11.90;99.90;;;;;;4939624;29;20505;-79
2023/04/15 09:38:28;;;;;;;0.60;0.10;;;11.80;99.90;;;;;;4931265;29;20875;-79
2023/04/15 09:40:56;;;;;;;0.97;0.97;;;11.80;99.90;;;;;;4930398;29;20469;-79
2023/04/15 09:43:37;;;;;;;1.07;0.50;;;11.80;99.90;;;;;;4933284;29;20449;-80
2023/04/15 09:46:05;;;;;;;0.60;0.20;;;11.70;99.90;;;;;;4929398;29;20459;-79
2023/04/15 09:48:33;;;;;;;0.67;0.27;;;;;;;;;;4914620;29;20889;-80
2023/04/15 09:51:02;;;;;;;0.60;0.30;;;11.60;99.90;;;;;;4924819;29;20486;-81
2023/04/15 09:53:34;;;;;;;0.60;0.10;;;11.60;99.90;;;;;;4927928;29;20452;-81
2023/04/15 09:56:02;;;;;;;0.60;0.20;;;;;;;;;;4927705;29;20519;-79
2023/04/15 09:58:32;;;;;;;0.73;0.60;;;11.50;99.90;;;;;;4921307;29;20613;-82
2023/04/15 10:01:02;;;;;;;2.63;0.97;;;11.40;99.90;;;;;;4918660;29;20480;-82
2023/04/15 10:03:32;;;;;;;0.60;0.10;;;11.40;99.90;;;;;;4927289;29;20464;-79
2023/04/15 10:06:02;;;;;;;0.60;0.10;;;11.50;99.90;;;;;;4924043;29;20462;-80
2023/04/15 10:08:33;;;;;;;0.60;0.20;;;11.50;99.90;;;;;;4909930;29;20510;-80
2023/04/15 10:11:02;;;;;;;0.60;0.10;;;11.50;99.90;;;;;;4908617;29;20486;-81
2023/04/15 10:13:34;;;;;;;0.60;0.10;;;11.40;99.90;;;;;;4909059;29;20527;-80
2023/04/15 10:16:06;;;;;;;0.60;0.20;;;11.40;99.90;;;;;;4918332;29;20830;-79
2023/04/15 10:18:38;;;;;;;0.97;0.20;;;11.40;99.90;;;;;;4928896;29;20450;-80
2023/04/15 10:21:08;;;;;;;0.60;0.20;;;11.50;99.90;;;;;;4919841;29;20479;-79
2023/04/15 10:23:39;;;;;;;2.20;0.40;;;;;;;;;;4929621;29;20857;-80
2023/04/15 10:26:08;;;;;;;0.60;0.10;;;11.50;99.90;;;;;;4924270;29;20949;-75
2023/04/15 10:28:36;;;;;;;0.60;0.10;;;11.70;99.90;;;;;;4919545;29;20463;-76
2023/04/15 10:31:06;;;;;;;0.60;0.10;;;12.00;99.90;;;;;;4921283;29;20477;-75
2023/04/15 10:33:35;;;;;;;0.60;0.17;;;12.30;99.90;;;;;;4917187;29;20446;-77
2023/04/15 10:36:03;;;;;;;0.60;0.10;;;12.50;99.90;;;;;;4919318;29;20508;-79
2023/04/15 10:38:35;;;;;;;0.60;0.10;;;12.70;99.90;;;;;;4918068;29;20957;-77
2023/04/15 10:41:15;;;;;;;0.60;0.20;;;12.90;99.90;;;;;;4900631;29;20901;-77
2023/04/15 10:43:50;;;;;;;1.90;1.70;;;13.00;99.90;;;;;;4900652;29;20455;-78
2023/04/15 10:46:20;;;;;;;0.60;0.20;;;13.00;99.90;;;;;;4906717;29;20543;-75
2023/04/15 10:48:50;;;;;;;0.60;0.10;;;13.10;99.90;;;;;;4919356;29;20501;-77
2023/04/15 10:51:28;;;;;;;0.87;0.60;;;13.10;99.90;;;;;;4919033;29;20474;-77
2023/04/15 10:53:59;;;;;;;0.60;0.10;;;13.00;99.90;;;;;;4918502;29;20435;-78
2023/04/15 10:56:30;;;;;;;0.60;0.10;;;13.00;99.90;;;;;;4919322;29;20965;-76
2023/04/15 10:59:00;;;;;;;0.60;0.10;;;13.10;99.90;;;;;;4920818;29;20450;-76
2023/04/15 11:01:53;;;;;;;0.80;0.40;;;13.10;99.90;;;;;;4919151;29;20970;-77
2023/04/15 11:04:52;;;;;;;0.60;0.10;;;13.10;99.90;;;;;;4904572;29;20866;-78
2023/04/15 11:07:37;;;;;;;0.60;0.10;;;13.10;99.90;;;;;;4918589;29;20457;-76
2023/04/15 11:10:57;;;;;;;0.60;0.10;;;13.30;99.90;;;;;;4918559;29;20445;-76
2023/04/15 11:13:29;;;;;;;0.60;0.10;;;13.50;99.90;;;;;;4918254;29;20435;-78
2023/04/15 11:16:01;;;;;;;0.70;0.40;;;13.60;99.90;;;;;;4918749;29;20487;-76
2023/04/15 11:18:31;;;;;;;0.60;0.10;;;13.70;99.90;;;;;;4918195;29;20464;-76
2023/04/15 11:21:02;;;;;;;0.60;0.10;;;13.70;99.90;;;;;;4906800;29;20476;-76
2023/04/15 11:23:32;;;;;;;0.60;0.10;;;;;;;;;;4915105;29;20468;-78
2023/04/15 11:26:01;;;;;;;0.60;0.20;;;;;;;;;;4907577;29;20535;-78
2023/04/15 11:28:31;;;;;;;0.60;0.30;;;;;;;;;;4923870;29;20451;-79
2023/04/15 11:31:07;;;;;;;0.60;0.10;;;13.20;99.90;;;;;;4926016;29;20528;-80
2023/04/15 11:33:35;;;;;;;0.80;0.47;;;;;;;;;;4925571;29;20456;-79
2023/04/15 11:36:04;;;;;;;0.70;0.40;;;;;;;;;;4913153;29;20511;-76
2023/04/15 11:38:32;;;;;;;0.60;0.10;;;;;;;;;;4924715;29;20522;-79
2023/04/15 11:41:00;;;;;;;0.60;0.10;;;;;;;;;;4938077;29;20483;-79
2023/04/15 11:43:34;;;;;;;0.60;0.10;;;12.60;99.90;;;;;;4934850;29;20516;-79
2023/04/15 11:46:03;;;;;;;0.60;0.10;;;12.50;99.90;;;;;;4926011;29;20441;-79
2023/04/15 11:48:33;;;;;;;1.10;0.60;;;12.40;99.90;;;;;;4925460;29;21009;-78
2023/04/15 11:51:02;;;;;;;0.60;0.10;;;12.00;99.90;;;;;;4916079;29;20860;-78
2023/04/15 11:53:39;;;;;;;0.70;0.30;;;12.00;99.90;;;;;;4924407;29;20485;-78
2023/04/15 11:56:09;;;;;;;0.60;0.10;;;12.00;99.90;;;;;;4929303;29;20492;-78
2023/04/15 11:58:39;;;;;;;0.60;0.10;;;;;;;;;;4939851;29;20439;-79
2023/04/15 12:01:07;;;;;;;1.73;0.50;;;11.90;99.90;;;;;;4940529;29;20518;-79
2023/04/15 12:03:39;;;;;;;0.60;0.20;;;11.80;99.90;;;;;;4934659;29;20450;-80
2023/04/15 12:06:17;;;;;;;0.60;0.10;;;11.80;99.90;;;;;;4927476;29;20461;-78
2023/04/15 12:08:53;;;;;;;0.70;0.57;;;11.80;99.90;;;;;;4930201;29;20944;-78
2023/04/15 12:11:22;;;;;;;0.60;0.10;;;;;;;;;;4927473;29;20547;-79
2023/04/15 12:13:51;;;;;;;0.60;0.10;;;11.80;99.90;;;;;;4926873;29;20458;-78
2023/04/15 12:16:20;;;;;;;0.70;0.40;;;11.80;99.90;;;;;;4926595;29;20576;-80
2023/04/15 12:18:50;;;;;;;1.23;0.73;;;11.70;99.90;;;;;;4927144;29;20530;-78
2023/04/15 12:21:20;;;;;;;0.60;0.10;;;;;;;;;;4921909;29;20506;-77
2023/04/15 12:23:49;;;;;;;0.60;0.10;;;11.60;99.90;;;;;;4904850;29;20456;-78
2023/04/15 12:26:18;;;;;;;0.60;0.10;;;11.60;99.90;;;;;;4924784;29;20462;-79
2023/04/15 12:28:46;;;;;;;0.80;0.53;;;;;;;;;;4923598;29;20458;-79
2023/04/15 12:31:16;;;;;;;0.60;0.10;;;;;;;;;;4919709;29;20479;-76
2023/04/15 12:33:44;;;;;;;0.60;0.10;;;11.50;99.90;;;;;;4917968;29;20509;-78
2023/04/15 12:36:12;;;;;;;0.60;0.10;;;11.50;99.90;;;;;;4927952;29;20515;-78
2023/04/15 12:38:40;;;;;;;0.60;0.10;;;;;;;;;;4910733;29;20460;-77
2023/04/15 12:41:09;;;;;;;0.60;0.20;;;;;;;;;;4900890;29;20491;-76
2023/04/15 12:43:36;;;;;;;0.60;0.10;;;11.60;99.90;;;;;;4901594;29;20834;-75
2023/04/15 12:46:05;;;;;;;0.60;0.20;;;11.50;99.90;;;;;;4899393;29;20456;-75
2023/04/15 12:48:35;;;;;;;0.60;0.10;;;11.50;99.90;;;;;;4904630;29;20486;-75
2023/04/15 12:51:02;;;;;;;0.60;0.10;;;11.50;99.90;;;;;;4917759;29;20473;-76
2023/04/15 12:53:32;;;;;;;0.60;0.20;;;11.50;99.90;;;;;;4918138;29;21014;-77
2023/04/15 12:56:00;;;;;;;0.60;0.40;;;11.40;99.90;;;;;;4918160;29;20489;-76
2023/04/15 12:58:28;;;;;;;0.60;0.10;;;11.40;99.90;;;;;;4919289;29;20467;-76
2023/04/15 13:00:56;;;;;;;0.60;0.10;;;11.40;99.90;;;;;;4918955;29;20487;-74
2023/04/15 13:03:24;;;;;;;0.77;0.30;;;11.30;99.90;;;;;;4909362;29;20546;-76
2023/04/15 13:05:53;;;;;;;0.60;0.10;;;11.20;99.90;;;;;;4910568;29;20871;-74
2023/04/15 13:08:21;;;;;;;0.60;0.10;;;11.20;99.90;;;;;;4919854;29;21026;-77
2023/04/15 13:10:49;;;;;;;0.60;0.10;;;11.10;99.90;;;;;;4929146;29;20477;-77
2023/04/15 13:13:17;;;;;;;0.60;0.10;;;11.10;99.90;;;;;;4911187;29;20491;-78
2023/04/15 13:15:45;;;;;;;0.60;0.10;;;11.10;99.90;;;;;;4917750;29;20517;-78
2023/04/15 13:18:13;;;;;;;0.60;0.20;;;11.10;99.90;;;;;;4913542;29;20458;-78
2023/04/15 13:20:41;;;;;;;0.60;0.10;;;11.10;99.90;;;;;;4901316;29;20464;-77
2023/04/15 13:23:10;;;;;;;0.60;0.10;;;11.10;99.90;;;;;;4905310;29;20452;-79
2023/04/15 13:25:39;;;;;;;0.60;0.20;;;11.10;99.90;;;;;;4921563;29;20453;-80
2023/04/15 13:28:07;;;;;;;0.60;0.20;;;11.20;99.90;;;;;;4937206;29;20461;-80
2023/04/15 13:30:37;;;;;;;0.60;0.10;;;11.20;99.90;;;;;;4935125;29;20724;-78
2023/04/15 13:33:05;;;;;;;0.60;0.10;;;11.20;99.90;;;;;;4927792;29;20458;-79
2023/04/15 13:35:33;;;;;;;0.60;0.10;;;11.20;99.90;;;;;;4914529;29;20444;-78
2023/04/15 13:38:01;;;;;;;0.60;0.10;;;11.10;99.90;;;;;;4929177;29;20493;-80
2023/04/15 13:40:30;;;;;;;0.60;0.10;;;11.10;99.90;;;;;;4936170;29;20444;-79
2023/04/15 13:42:58;;;;;;;0.60;0.10;;;11.10;99.90;;;;;;4927652;29;20478;-78
2023/04/15 13:45:27;;;;;;;0.60;0.10;;;;;;;;;;4916544;29;20442;-79
2023/04/15 13:47:56;;;;;;;0.60;0.10;;;11.10;99.90;;;;;;4930041;29;20792;-78
2023/04/15 13:50:24;;;;;;;0.60;0.10;;;11.00;99.90;;;;;;4931786;29;20469;-79
2023/04/15 13:52:52;;;;;;;0.60;0.10;;;11.10;99.90;;;;;;4934380;29;20534;-80
2023/04/15 13:55:20;;;;;;;0.60;0.10;;;11.10;99.90;;;;;;4937720;29;20461;-79
2023/04/15 13:57:53;;;;;;;0.60;0.10;;;;;;;;;;4931434;29;20485;-78
2023/04/15 14:00:21;;;;;;;0.60;0.10;;;11.20;99.90;;;;;;4938162;29;20523;-79
2023/04/15 14:02:49;;;;;;;0.60;0.10;;;11.20;99.90;;;;;;4935048;29;20854;-78
2023/04/15 14:05:17;;;;;;;1.23;1.13;;;11.20;99.90;;;;;;4934205;29;20525;-79
2023/04/15 14:07:45;;;;;;;0.60;0.10;;;11.20;99.90;;;;;;4935917;29;20491;-78
2023/04/15 14:10:13;;;;;;;0.60;0.10;;;11.20;99.90;;;;;;4937132;29;20986;-78
2023/04/15 14:12:41;;;;;;;0.60;0.10;;;11.20;99.90;;;;;;4928097;29;20470;-79
2023/04/15 14:15:11;;;;;;;0.60;0.10;;;;;;;;;;4927849;29;20468;-80
2023/04/15 14:17:41;;;;;;;0.60;0.10;;;11.30;99.90;;;;;;4925386;29;21007;-78
2023/04/15 14:20:09;;;;;;;0.60;0.20;;;11.30;99.90;;;;;;4921137;29;20454;-80
2023/04/15 14:22:37;;;;;;;0.60;0.10;;;11.30;99.90;;;;;;4919839;29;20482;-80
2023/04/15 14:25:06;;;;;;;0.60;0.10;;;;;;;;;;4931321;29;20449;-79
2023/04/15 14:27:34;;;;;;;0.60;0.10;;;11.40;99.90;;;;;;4925405;29;20445;-79
2023/04/15 14:30:02;;;;;;;0.60;0.10;;;11.40;99.90;;;;;;4927649;29;20508;-79
2023/04/15 14:32:31;;;;;;;0.60;0.10;;;11.40;99.90;;;;;;4928819;29;20469;-78
2023/04/15 14:34:59;;;;;;;0.60;0.20;;;11.30;99.90;;;;;;4927341;29;20449;-79
2023/04/15 14:37:27;;;;;;;0.60;0.10;;;11.30;99.90;;;;;;4923593;29;20481;-80
2023/04/15 14:39:55;;;;;;;0.60;0.10;;;11.30;99.90;;;;;;4924260;29;20453;-79
2023/04/15 14:42:24;;;;;;;0.60;0.10;;;;;;;;;;4925621;29;20506;-79
2023/04/15 14:44:52;;;;;;;0.60;0.33;;;;;;;;;;4921085;29;20532;-79
2023/04/15 14:47:20;;;;;;;0.60;0.10;;;11.30;99.90;;;;;;4932441;29;20441;-81
2023/04/15 14:49:50;;;;;;;0.60;0.10;;;;;;;;;;4938738;29;20449;-80
2023/04/15 14:52:18;;;;;;;0.87;0.37;;;11.20;99.90;;;;;;4932617;29;20486;-79
2023/04/15 14:54:46;;;;;;;0.73;0.73;;;;;;;;;;4934124;29;20496;-80
2023/04/15 14:57:14;;;;;;;0.70;0.30;;;11.20;99.90;;;;;;4937163;29;20485;-79
2023/04/15 14:59:42;;;;;;;0.60;0.10;;;11.10;99.90;;;;;;4936386;29;20447;-79
2023/04/15 15:02:10;;;;;;;0.60;0.20;;;;;;;;;;4937038;29;20461;-81
2023/04/15 15:04:43;;;;;;;0.60;0.20;;;11.10;99.90;;;;;;4935257;29;20445;-80
2023/04/15 15:07:13;;;;;;;0.60;0.10;;;;;;;;;;4937889;29;20532;-80
2023/04/15 15:09:41;;;;;;;0.60;0.10;;;11.00;99.90;;;;;;4921269;29;20450;-79
2023/04/15 15:12:09;;;;;;;0.60;0.10;;;10.90;99.90;;;;;;4935291;29;20473;-79
2023/04/15 15:14:37;;;;;;;0.60;0.10;;;;;;;;;;4935923;29;20461;-80
2023/04/15 15:17:05;;;;;;;0.60;0.10;;;10.90;99.90;;;;;;4936552;29;20494;-81
2023/04/15 15:19:33;;;;;;;0.57;0.10;;;10.90;99.90;;;;;;4937627;29;20511;-80
2023/04/15 15:22:02;;;;;;;0.60;0.10;;;;;;;;;;4939975;29;20457;-79
2023/04/15 15:24:31;;;;;;;0.50;0.10;;;10.90;99.90;;;;;;4938044;29;20441;-79
2023/04/15 15:26:59;;;;;;;0.60;0.10;;;10.90;99.90;;;;;;4929951;29;20457;-79
2023/04/15 15:29:28;;;;;;;0.60;0.10;;;;;;;;;;4936342;29;20455;-79
2023/04/15 15:31:56;;;;;;;0.50;0.10;;;;;;;;;;4934629;29;20484;-79
2023/04/15 15:34:24;;;;;;;0.70;0.60;;;;;;;;;;4928204;29;20445;-79
2023/04/15 15:36:53;;;;;;;0.60;0.10;;;10.80;99.90;;;;;;4939004;29;20495;-79
2023/04/15 15:39:23;;;;;;;0.60;0.10;;;;;;;;;;4940169;29;20469;-77
2023/04/15 15:41:52;;;;;;;0.60;0.10;;;10.90;99.90;;;;;;4938715;29;20467;-80
2023/04/15 15:44:20;;;;;;;0.60;0.10;;;10.90;99.90;;;;;;4945089;29;20440;-81
2023/04/15 15:46:49;;;;;;;0.50;0.10;;;10.90;99.90;;;;;;4941175;29;20530;-80
2023/04/15 15:49:18;;;;;;;0.60;0.10;;;;;;;;;;4935948;29;20440;-81
2023/04/15 15:51:48;;;;;;;0.60;0.10;;;;;;;;;;4938245;29;20483;-80
2023/04/15 15:54:16;;;;;;;0.60;0.10;;;10.90;99.90;;;;;;4935551;29;20448;-82
2023/04/15 15:56:44;;;;;;;0.60;0.10;;;10.90;99.90;;;;;;4931352;29;20472;-79
2023/04/15 15:59:13;;;;;;;0.50;0.10;;;;;;;;;;4932529;29;20455;-78
2023/04/15 16:01:41;;;;;;;0.60;0.10;;;10.90;99.90;;;;;;4930314;29;20476;-79
2023/04/15 16:04:09;;;;;;;0.60;0.10;;;10.90;99.90;;;;;;4906846;29;20458;-79
2023/04/15 16:06:39;;;;;;;0.60;0.23;;;10.90;99.90;;;;;;4907812;29;20992;-81
2023/04/15 16:09:07;;;;;;;0.60;0.10;;;10.90;99.90;;;;;;4949148;29;20951;-79
2023/04/15 16:11:35;;;;;;;0.50;0.10;;;;;;;;;;4946605;29;20465;-80
2023/04/15 16:14:03;;;;;;;0.60;0.10;;;;;;;;;;4946737;29;20448;-78
2023/04/15 16:16:32;;;;;;;0.60;0.10;;;10.90;99.90;;;;;;4940853;29;20513;-80
2023/04/15 16:19:00;;;;;;;0.60;0.10;;;10.90;99.90;;;;;;4926461;29;20593;-80
2023/04/15 16:21:30;;;;;;;0.50;0.10;;;10.90;99.90;;;;;;4926924;29;20530;-80
2023/04/15 16:23:58;;;;;;;0.60;0.17;;;;;;;;;;4927478;29;20455;-80
2023/04/15 16:26:26;;;;;;;0.57;0.17;;;;;;;;;;4909317;29;20459;-80
2023/04/15 16:28:54;;;;;;;0.60;0.10;;;10.80;99.90;;;;;;4907648;29;20461;-82
2023/04/15 16:31:23;;;;;;;0.60;0.10;;;;;;;;;;4907770;29;20474;-80
2023/04/15 16:33:52;;;;;;;0.60;0.10;;;;;;;;;;4918314;29;20512;-79
2023/04/15 16:36:20;;;;;;;0.60;0.10;;;;;;;;;;4930012;29;20482;-79
2023/04/15 16:38:49;;;;;;;0.60;0.10;;;;;;;;;;4928520;29;20485;-80
2023/04/15 16:41:17;;;;;;;0.50;0.10;;;10.70;99.90;;;;;;4926568;29;20469;-80
2023/04/15 16:43:45;;;;;;;0.50;0.10;;;10.70;99.90;;;;;;4920824;29;20459;-81
2023/04/15 16:46:13;;;;;;;0.60;0.10;;;10.70;99.90;;;;;;4907262;29;20506;-80
2023/04/15 16:48:41;;;;;;;0.50;0.10;;;10.70;99.90;;;;;;4916670;29;20441;-82
2023/04/15 16:51:10;;;;;;;0.60;0.10;;;;;;;;;;4936440;29;20504;-80
2023/04/15 16:53:39;;;;;;;0.60;0.30;;;;;;;;;;4936911;29;20814;-80
2023/04/15 16:56:07;;;;;;;0.57;0.10;;;;;;;;;;4940453;29;20450;-80
2023/04/15 16:58:35;;;;;;;0.60;0.10;;;10.70;99.90;;;;;;4923426;29;20493;-79
2023/04/15 17:01:03;;;;;;;0.60;0.20;;;10.70;99.90;;;;;;4938266;29;20481;-79
2023/04/15 17:03:31;;;;;;;0.80;0.40;;;10.60;99.90;;;;;;4945727;29;20451;-81
2023/04/15 17:06:00;;;;;;;0.60;0.10;;;10.60;99.90;;;;;;4935843;29;20449;-81
2023/04/15 17:08:32;;;;;;;0.50;0.10;;;10.60;99.90;;;;;;4934040;29;20447;-81
2023/04/15 17:11:00;;;;;;;0.60;0.10;;;10.60;99.90;;;;;;4937429;29;20483;-81
2023/04/15 17:13:28;;;;;;;0.60;0.10;;;10.60;99.90;;;;;;4939724;29;20442;-82
2023/04/15 17:15:57;;;;;;;0.60;0.10;;;;;;;;;;4926420;29;20453;-80
2023/04/15 17:18:25;;;;;;;0.50;0.10;;;10.60;99.90;;;;;;4932389;29;20484;-79